createdAt,value
2022-10-02T00:01:25.932Z,20.48
2022-10-02T00:03:53.239Z,18.13
2022-10-02T00:06:26.002Z,20.90
2022-10-02T00:08:59.276Z,20.25
2022-10-02T00:11:40.381Z,18.08
2022-10-02T00:14:11.761Z,17.90
2022-10-02T00:16:42.254Z,17.05
2022-10-02T00:19:11.127Z,12.27
2022-10-02T00:22:19.072Z,15.43
2022-10-02T00:25:01.484Z,17.77
2022-10-02T00:27:40.066Z,9.88
2022-10-02T00:30:11.956Z,21.40
2022-10-02T00:32:54.666Z,17.98
2022-10-02T00:35:34.413Z,17.13
2022-10-02T00:38:10.129Z,12.38
2022-10-02T00:40:58.881Z,14.95
2022-10-02T00:43:44.904Z,16.30
2022-10-02T00:46:22.559Z,20.42
2022-10-02T00:49:18.625Z,16.73
2022-10-02T00:52:19.896Z,14.88
2022-10-02T00:54:52.208Z,13.95
2022-10-02T00:57:24.651Z,12.70
2022-10-02T01:00:15.037Z,18.05
2022-10-02T01:03:00.502Z,11.65
2022-10-02T01:05:27.374Z,16.15
2022-10-02T01:07:55.432Z,15.50
2022-10-02T01:10:23.285Z,16.80
2022-10-02T01:12:50.188Z,14.60
2022-10-02T01:15:19.544Z,14.40
2022-10-02T01:17:48.078Z,12.75
2022-10-02T01:20:17.623Z,12.88
2022-10-02T01:22:56.700Z,11.68
2022-10-02T01:25:23.330Z,9.27
2022-10-02T01:27:52.479Z,9.25
2022-10-02T01:30:20.672Z,13.52
2022-10-02T01:32:53.599Z,10.35
2022-10-02T01:35:22.903Z,11.73
2022-10-02T01:37:51.059Z,12.90
2022-10-02T01:40:32.432Z,17.05
2022-10-02T01:43:02.854Z,12.65
2022-10-02T01:45:36.198Z,15.32
2022-10-02T01:48:34.000Z,15.32
2022-10-02T01:51:25.136Z,13.32
2022-10-02T01:54:10.283Z,9.95
2022-10-02T01:57:12.967Z,11.60
2022-10-02T02:00:04.573Z,10.32
2022-10-02T02:02:41.179Z,8.20
2022-10-02T02:05:32.183Z,14.00
2022-10-02T02:08:13.844Z,12.77
2022-10-02T02:10:55.862Z,13.60
2022-10-02T02:13:35.592Z,21.75
2022-10-02T02:16:13.364Z,12.63
2022-10-02T02:18:46.298Z,14.13
2022-10-02T02:21:22.152Z,15.90
2022-10-02T02:23:49.823Z,12.63
2022-10-02T02:26:19.758Z,14.20
2022-10-02T02:28:54.974Z,10.40
2022-10-02T02:31:27.265Z,12.32
2022-10-02T02:34:09.552Z,15.20
2022-10-02T02:36:42.448Z,13.43
2022-10-02T02:39:19.596Z,11.82
2022-10-02T02:41:57.840Z,10.85
2022-10-02T02:44:30.214Z,8.43
2022-10-02T02:47:18.863Z,13.00
2022-10-02T02:50:16.626Z,13.82
2022-10-02T02:52:57.285Z,13.82
2022-10-02T02:55:28.751Z,14.05
2022-10-02T02:58:13.444Z,14.32
2022-10-02T03:00:40.144Z,8.88
2022-10-02T03:03:07.039Z,15.27
2022-10-02T03:05:35.376Z,12.45
2022-10-02T03:08:05.300Z,14.45
2022-10-02T03:11:05.309Z,13.63
2022-10-02T03:14:01.293Z,12.88
2022-10-02T03:16:47.027Z,12.57
2022-10-02T03:19:34.532Z,12.25
2022-10-02T03:22:41.359Z,15.82
2022-10-02T03:25:26.160Z,13.13
2022-10-02T03:28:54.271Z,8.27
2022-10-02T03:31:23.403Z,11.95
2022-10-02T03:33:53.621Z,9.05
2022-10-02T03:36:21.596Z,15.35
2022-10-02T03:39:00.650Z,10.98
2022-10-02T03:41:32.964Z,8.68
2022-10-02T03:43:59.439Z,6.20
2022-10-02T03:46:26.009Z,7.97
2022-10-02T03:48:52.479Z,10.35
2022-10-02T03:51:18.822Z,11.43
2022-10-02T03:53:45.345Z,12.35
2022-10-02T03:56:28.681Z,11.85
2022-10-02T03:59:01.152Z,11.27
2022-10-02T04:01:32.472Z,18.48
2022-10-02T04:04:04.261Z,9.02
2022-10-02T04:06:41.680Z,7.82
2022-10-02T04:09:14.636Z,11.45
2022-10-02T04:11:49.024Z,9.02
2022-10-02T04:14:30.143Z,9.80
2022-10-02T04:17:15.965Z,8.23
2022-10-02T04:19:50.034Z,8.35
2022-10-02T04:22:39.802Z,16.25
2022-10-02T04:25:19.713Z,13.10
2022-10-02T04:28:10.906Z,12.57
2022-10-02T04:30:37.410Z,6.07
2022-10-02T04:33:12.862Z,6.53
2022-10-02T04:36:02.606Z,8.88
2022-10-02T04:38:41.852Z,13.90
2022-10-02T04:41:27.223Z,9.52
2022-10-02T04:44:13.067Z,12.48
2022-10-02T04:46:51.318Z,13.20
2022-10-02T04:49:32.765Z,10.50
2022-10-02T04:52:28.060Z,11.25
2022-10-02T04:55:13.218Z,9.90
2022-10-02T04:58:04.039Z,8.55
2022-10-02T05:00:57.551Z,11.88
2022-10-02T05:03:39.351Z,10.38
2022-10-02T05:06:38.665Z,12.98
2022-10-02T05:09:33.403Z,11.43
2022-10-02T05:12:21.997Z,9.35
2022-10-02T05:14:55.758Z,13.00
2022-10-02T05:17:53.862Z,15.55
2022-10-02T05:20:35.331Z,8.48
2022-10-02T05:23:04.547Z,11.90
2022-10-02T05:25:46.805Z,14.68
2022-10-02T05:28:27.321Z,14.25
2022-10-02T05:31:31.308Z,18.58
2022-10-02T05:34:21.175Z,10.48
2022-10-02T05:37:04.360Z,17.00
2022-10-02T05:39:39.338Z,11.77
2022-10-02T05:42:16.662Z,11.85
2022-10-02T05:44:50.645Z,9.88
2022-10-02T05:47:25.106Z,13.82
2022-10-02T05:49:56.310Z,10.85
2022-10-02T05:53:05.996Z,15.82
2022-10-02T05:56:00.366Z,16.35
2022-10-02T05:58:51.264Z,14.60
2022-10-02T06:01:30.664Z,12.73
2022-10-02T06:04:12.999Z,15.68
2022-10-02T06:06:48.224Z,18.50
2022-10-02T06:09:26.249Z,20.75
2022-10-02T06:12:12.456Z,18.40
2022-10-02T06:14:58.070Z,21.60
2022-10-02T06:17:30.911Z,15.00
2022-10-02T06:20:03.834Z,18.30
2022-10-02T06:22:41.283Z,17.00
2022-10-02T06:25:27.733Z,17.33
2022-10-02T06:28:35.494Z,16.27
2022-10-02T06:31:13.022Z,17.65
2022-10-02T06:33:39.459Z,13.63
2022-10-02T06:36:13.585Z,11.25
2022-10-02T06:38:48.575Z,14.63
2022-10-02T06:41:42.044Z,22.50
2022-10-02T06:44:30.836Z,8.85
2022-10-02T06:47:08.680Z,11.70
2022-10-02T06:49:53.581Z,9.88
2022-10-02T06:52:41.713Z,23.50
2022-10-02T06:55:45.249Z,9.13
2022-10-02T06:58:30.024Z,8.05
2022-10-02T07:01:15.786Z,8.65
2022-10-02T07:04:24.504Z,7.63
2022-10-02T07:07:09.876Z,7.68
2022-10-02T07:10:00.755Z,7.25
2022-10-02T07:12:53.883Z,8.15
2022-10-02T07:15:40.444Z,6.35
2022-10-02T07:18:22.744Z,5.35
2022-10-02T07:21:10.133Z,6.60
2022-10-02T07:23:47.368Z,8.52
2022-10-02T07:26:28.946Z,3.95
2022-10-02T07:29:06.495Z,6.63
2022-10-02T07:32:10.837Z,11.95
2022-10-02T07:34:52.153Z,8.45
2022-10-02T07:37:36.663Z,6.30
2022-10-02T07:40:30.335Z,10.88
2022-10-02T07:43:04.370Z,6.32
2022-10-02T07:45:42.104Z,8.13
2022-10-02T07:48:28.538Z,14.02
2022-10-02T07:51:30.468Z,4.75
2022-10-02T07:54:14.104Z,11.48
2022-10-02T07:56:41.556Z,7.10
2022-10-02T07:59:16.037Z,7.45
2022-10-02T08:01:45.155Z,8.18
2022-10-02T08:04:18.702Z,7.53
2022-10-02T08:06:47.224Z,5.55
2022-10-02T08:09:24.209Z,3.88
2022-10-02T08:12:09.207Z,4.90
2022-10-02T08:14:45.338Z,10.95
2022-10-02T08:17:32.334Z,8.10
2022-10-02T08:20:13.360Z,11.23
2022-10-02T08:22:46.172Z,13.52
2022-10-02T08:25:12.492Z,9.80
2022-10-02T08:27:52.597Z,9.23
2022-10-02T08:30:19.158Z,7.50
2022-10-02T08:32:47.766Z,7.93
2022-10-02T08:35:19.621Z,8.98
2022-10-02T08:38:14.106Z,14.38
2022-10-02T08:41:00.511Z,6.40
2022-10-02T08:44:01.889Z,7.82
2022-10-02T08:47:18.697Z,7.20
2022-10-02T08:49:53.152Z,6.65
2022-10-02T08:52:38.392Z,13.43
2022-10-02T08:55:39.557Z,7.95
2022-10-02T08:58:36.222Z,10.65
2022-10-02T09:01:28.390Z,12.68
2022-10-02T09:04:31.989Z,8.25
2022-10-02T09:07:10.622Z,6.18
2022-10-02T09:09:43.099Z,9.43
2022-10-02T09:12:21.410Z,7.90
2022-10-02T09:14:56.792Z,16.02
2022-10-02T09:18:17.712Z,10.10
2022-10-02T09:21:13.808Z,9.30
2022-10-02T09:24:14.118Z,11.30
2022-10-02T09:26:43.587Z,9.02
2022-10-02T09:29:37.981Z,7.65
2022-10-02T09:32:07.512Z,8.18
2022-10-02T09:35:16.569Z,12.90
2022-10-02T09:37:55.212Z,10.18
2022-10-02T09:40:46.644Z,17.23
2022-10-02T09:43:34.756Z,13.68
2022-10-02T09:46:27.090Z,10.70
2022-10-02T09:48:59.271Z,18.25
2022-10-02T09:51:57.536Z,15.23
2022-10-02T09:54:47.730Z,11.25
2022-10-02T09:57:46.924Z,10.93
2022-10-02T10:00:22.340Z,17.65
2022-10-02T10:03:10.433Z,7.63
2022-10-02T10:05:58.667Z,11.02
2022-10-02T10:09:16.291Z,9.90
2022-10-02T10:12:05.614Z,8.50
2022-10-02T10:15:29.394Z,6.55
2022-10-02T10:18:32.647Z,9.63
2022-10-02T10:21:07.997Z,5.15
2022-10-02T10:24:31.453Z,6.43
2022-10-02T10:27:38.743Z,7.13
2022-10-02T10:30:33.232Z,6.30
2022-10-02T10:33:11.335Z,6.22
2022-10-02T10:36:05.546Z,4.70
2022-10-02T10:38:56.397Z,5.30
2022-10-02T10:41:50.636Z,6.05
2022-10-02T10:44:27.407Z,5.40
2022-10-02T10:47:08.268Z,4.78
2022-10-02T10:50:02.600Z,6.93
2022-10-02T10:53:03.880Z,7.65
2022-10-02T10:55:57.208Z,9.07
2022-10-02T10:59:04.984Z,36.05
2022-10-02T11:01:56.007Z,9.02
2022-10-02T11:05:03.151Z,6.75
2022-10-02T11:07:45.793Z,7.03
2022-10-02T11:10:29.008Z,9.50
2022-10-02T11:13:27.714Z,11.30
2022-10-02T11:16:13.169Z,12.95
2022-10-02T11:18:52.501Z,11.10
2022-10-02T11:21:58.167Z,13.77
2022-10-02T11:25:12.550Z,11.93
2022-10-02T11:27:57.676Z,11.32
2022-10-02T11:30:54.891Z,11.80
2022-10-02T11:33:51.013Z,12.85
2022-10-02T11:36:41.607Z,13.50
2022-10-02T11:39:15.466Z,11.23
2022-10-02T11:42:26.280Z,12.40
2022-10-02T11:45:19.980Z,9.02
2022-10-02T11:47:57.444Z,19.48
2022-10-02T11:50:54.860Z,14.80
2022-10-02T11:53:23.624Z,15.68
2022-10-02T11:56:31.632Z,18.13
2022-10-02T11:59:18.227Z,12.45
2022-10-02T12:01:55.619Z,15.27
2022-10-02T12:04:35.128Z,18.02
2022-10-02T12:07:42.332Z,17.50
2022-10-02T12:10:30.366Z,14.23
2022-10-02T12:13:20.980Z,11.30
2022-10-02T12:16:21.607Z,14.02
2022-10-02T12:19:06.372Z,17.73
2022-10-02T12:22:30.047Z,17.67
2022-10-02T12:25:21.414Z,12.13
2022-10-02T12:28:13.097Z,13.43
2022-10-02T12:30:49.868Z,10.88
2022-10-02T12:33:27.199Z,16.33
2022-10-02T12:36:05.321Z,16.90
2022-10-02T12:39:00.797Z,13.23
2022-10-02T12:41:38.854Z,13.27
2022-10-02T12:44:32.634Z,11.20
2022-10-02T12:47:22.861Z,15.73
2022-10-02T12:50:21.880Z,12.18
2022-10-02T12:53:07.132Z,12.25
2022-10-02T12:55:52.299Z,13.70
2022-10-02T12:58:39.523Z,11.32
2022-10-02T13:01:30.842Z,12.32
2022-10-02T13:04:39.056Z,12.00
2022-10-02T13:07:08.280Z,11.50
2022-10-02T13:09:53.175Z,13.48
2022-10-02T13:12:34.490Z,9.38
2022-10-02T13:15:23.146Z,11.15
2022-10-02T13:17:59.015Z,11.95
2022-10-02T13:20:39.731Z,16.58
2022-10-02T13:23:47.784Z,14.90
2022-10-02T13:26:29.789Z,13.75
2022-10-02T13:29:18.079Z,14.48
2022-10-02T13:31:57.701Z,14.00
2022-10-02T13:34:42.740Z,14.27
2022-10-02T13:37:09.124Z,8.48
2022-10-02T13:40:02.545Z,9.60
2022-10-02T13:42:38.023Z,11.23
2022-10-02T13:45:07.343Z,10.73
2022-10-02T13:47:44.087Z,14.75
2022-10-02T13:50:19.958Z,10.73
2022-10-02T13:53:08.148Z,8.32
2022-10-02T13:55:43.089Z,12.27
2022-10-02T13:58:34.515Z,11.85
2022-10-02T14:01:26.771Z,12.48
2022-10-02T14:04:14.706Z,13.07
2022-10-02T14:06:48.716Z,12.35
2022-10-02T14:09:42.851Z,18.40
2022-10-02T14:12:27.538Z,12.90
2022-10-02T14:15:03.569Z,13.82
2022-10-02T14:17:44.073Z,19.88
2022-10-02T14:20:26.937Z,12.18
2022-10-02T14:23:19.577Z,14.77
2022-10-02T14:26:04.847Z,15.50
2022-10-02T14:28:55.404Z,17.02
2022-10-02T14:31:37.846Z,13.82
2022-10-02T14:34:38.451Z,15.52
2022-10-02T14:37:37.838Z,20.33
2022-10-02T14:40:17.118Z,18.52
2022-10-02T14:43:01.864Z,17.73
2022-10-02T14:46:03.253Z,15.00
2022-10-02T14:48:56.476Z,14.85
2022-10-02T14:51:45.447Z,17.05
2022-10-02T14:54:31.535Z,16.73
2022-10-02T14:57:39.424Z,16.40
2022-10-02T15:00:15.912Z,18.58
2022-10-02T15:03:18.964Z,24.55
2022-10-02T15:06:22.572Z,18.80
2022-10-02T15:09:01.773Z,15.13
2022-10-02T15:11:37.381Z,22.55
2022-10-02T15:14:19.572Z,22.58
2022-10-02T15:17:07.828Z,17.40
2022-10-02T15:19:39.659Z,14.35
2022-10-02T15:22:20.163Z,15.38
2022-10-02T15:24:55.108Z,20.35
2022-10-02T15:27:31.416Z,16.27
2022-10-02T15:30:15.847Z,15.27
2022-10-02T15:32:59.093Z,18.27
2022-10-02T15:35:54.564Z,18.00
2022-10-02T15:38:26.298Z,21.38
2022-10-02T15:41:11.598Z,17.25
2022-10-02T15:44:06.672Z,19.38
2022-10-02T15:46:49.600Z,21.48
2022-10-02T15:49:53.638Z,21.73
2022-10-02T15:52:40.511Z,18.05
2022-10-02T15:55:41.501Z,21.13
2022-10-02T15:58:21.067Z,20.23
2022-10-02T16:01:12.385Z,17.85
2022-10-02T16:03:53.494Z,19.85
2022-10-02T16:06:53.428Z,17.55
2022-10-02T16:09:38.467Z,21.63
2022-10-02T16:12:27.935Z,15.60
2022-10-02T16:15:16.789Z,24.80
2022-10-02T16:18:19.955Z,20.75
2022-10-02T16:20:56.656Z,22.98
2022-10-02T16:23:54.193Z,17.10
2022-10-02T16:26:32.232Z,19.55
2022-10-02T16:29:23.832Z,20.35
2022-10-02T16:32:16.685Z,22.30
2022-10-02T16:35:22.174Z,22.08
2022-10-02T16:37:59.968Z,20.45
2022-10-02T16:40:36.436Z,23.30
2022-10-02T16:43:37.366Z,24.50
2022-10-02T16:46:12.959Z,17.60
2022-10-02T16:48:55.946Z,17.95
2022-10-02T16:51:40.334Z,27.23
2022-10-02T16:54:23.090Z,16.02
2022-10-02T16:57:04.672Z,22.23
2022-10-02T16:59:51.619Z,22.77
2022-10-02T17:02:26.148Z,26.83
2022-10-02T17:04:58.186Z,21.08
2022-10-02T17:07:30.787Z,19.08
2022-10-02T17:10:18.823Z,22.05
2022-10-02T17:13:26.983Z,23.15
2022-10-02T17:16:07.415Z,20.45
2022-10-02T17:18:43.741Z,17.92
2022-10-02T17:21:12.932Z,19.65
2022-10-02T17:24:19.927Z,21.63
2022-10-02T17:27:03.556Z,21.58
2022-10-02T17:29:39.071Z,16.33
2022-10-02T17:32:08.762Z,21.38
2022-10-02T17:34:46.510Z,17.13
2022-10-02T17:37:16.140Z,16.23
2022-10-02T17:40:01.396Z,20.65
2022-10-02T17:42:51.810Z,19.40
2022-10-02T17:45:42.951Z,22.63
2022-10-02T17:48:15.486Z,16.67
2022-10-02T17:51:00.211Z,28.33
2022-10-02T17:54:04.946Z,19.05
2022-10-02T17:56:49.837Z,16.40
2022-10-02T17:59:30.643Z,17.88
2022-10-02T18:02:09.406Z,21.27
2022-10-02T18:04:39.757Z,21.15
2022-10-02T18:07:30.989Z,19.88
2022-10-02T18:10:03.840Z,19.73
2022-10-02T18:13:03.579Z,21.17
2022-10-02T18:15:39.836Z,16.80
2022-10-02T18:18:40.318Z,29.65
2022-10-02T18:21:28.310Z,16.00
2022-10-02T18:24:17.429Z,18.92
2022-10-02T18:27:01.257Z,17.20
2022-10-02T18:29:46.497Z,16.48
2022-10-02T18:32:36.102Z,20.88
2022-10-02T18:35:15.271Z,21.55
2022-10-02T18:37:58.828Z,18.75
2022-10-02T18:40:49.260Z,21.70
2022-10-02T18:43:47.514Z,16.38
2022-10-02T18:46:25.939Z,24.55
2022-10-02T18:49:30.499Z,20.35
2022-10-02T18:52:18.210Z,24.65
2022-10-02T18:55:05.969Z,22.00
2022-10-02T18:58:04.317Z,23.05
2022-10-02T19:01:00.082Z,21.90
2022-10-02T19:03:48.284Z,20.42
2022-10-02T19:06:31.163Z,21.27
2022-10-02T19:09:03.990Z,26.05
2022-10-02T19:11:32.877Z,24.73
2022-10-02T19:14:02.135Z,17.23
2022-10-02T19:16:31.053Z,23.75
2022-10-02T19:19:20.701Z,20.30
2022-10-02T19:21:47.908Z,17.40
2022-10-02T19:24:23.312Z,20.95
2022-10-02T19:26:56.260Z,18.05
2022-10-02T19:29:37.131Z,22.08
2022-10-02T19:32:13.200Z,17.52
2022-10-02T19:34:42.046Z,23.85
2022-10-02T19:37:15.109Z,24.50
2022-10-02T19:39:48.873Z,17.70
2022-10-02T19:42:22.989Z,19.73
2022-10-02T19:44:53.375Z,16.67
2022-10-02T19:47:27.340Z,17.75
2022-10-02T19:49:59.072Z,18.48
2022-10-02T19:52:29.705Z,12.25
2022-10-02T19:54:59.894Z,16.83
2022-10-02T19:57:31.711Z,19.52
2022-10-02T20:00:00.945Z,20.88
2022-10-02T20:02:32.501Z,27.10
2022-10-02T20:05:02.102Z,22.05
2022-10-02T20:07:31.287Z,16.27
2022-10-02T20:10:02.992Z,21.63
2022-10-02T20:12:39.905Z,17.60
2022-10-02T20:15:59.242Z,19.92
2022-10-02T20:18:26.095Z,20.55
2022-10-02T20:20:59.384Z,17.60
2022-10-02T20:23:31.743Z,17.45
2022-10-02T20:26:07.030Z,21.88
2022-10-02T20:28:51.982Z,11.63
2022-10-02T20:31:35.991Z,15.55
2022-10-02T20:34:13.805Z,16.08
2022-10-02T20:37:05.842Z,14.93
2022-10-02T20:39:40.748Z,21.70
2022-10-02T20:42:19.835Z,18.00
2022-10-02T20:44:46.436Z,20.90
2022-10-02T20:47:31.667Z,16.63
2022-10-02T20:50:21.496Z,11.55
2022-10-02T20:53:06.293Z,22.30
2022-10-02T20:55:56.090Z,15.82
2022-10-02T20:58:58.714Z,18.50
2022-10-02T21:01:44.031Z,12.95
2022-10-02T21:04:49.135Z,17.98
2022-10-02T21:07:20.646Z,14.10
2022-10-02T21:10:14.853Z,19.15
2022-10-02T21:13:08.106Z,15.10
2022-10-02T21:15:46.180Z,14.70
2022-10-02T21:18:21.316Z,20.45
2022-10-02T21:21:12.705Z,14.32
2022-10-02T21:23:54.269Z,17.05
2022-10-02T21:26:40.250Z,20.52
2022-10-02T21:29:17.296Z,14.60
2022-10-02T21:32:01.603Z,21.20
2022-10-02T21:34:59.174Z,13.63
2022-10-02T21:37:39.355Z,14.82
2022-10-02T21:40:29.384Z,15.05
2022-10-02T21:43:17.264Z,22.73
2022-10-02T21:46:05.553Z,20.27
2022-10-02T21:49:04.918Z,17.92
2022-10-02T21:52:09.026Z,16.83
2022-10-02T21:55:11.989Z,21.90
2022-10-02T21:58:00.699Z,21.25
2022-10-02T22:00:28.710Z,17.80
2022-10-02T22:03:29.075Z,14.10
2022-10-02T22:06:12.462Z,15.93
2022-10-02T22:08:44.588Z,18.02
2022-10-02T22:11:21.491Z,15.73
2022-10-02T22:13:53.201Z,16.15
2022-10-02T22:16:36.291Z,16.55
2022-10-02T22:19:20.660Z,18.85
2022-10-02T22:22:05.431Z,19.25
2022-10-02T22:24:51.768Z,21.73
2022-10-02T22:27:23.667Z,20.38
2022-10-02T22:29:55.386Z,19.52
2022-10-02T22:33:01.722Z,20.02
2022-10-02T22:35:59.367Z,18.23
2022-10-02T22:38:36.349Z,14.27
2022-10-02T22:41:06.918Z,19.10
2022-10-02T22:43:44.314Z,15.70
2022-10-02T22:46:40.301Z,13.77
2022-10-02T22:49:25.121Z,22.40
2022-10-02T22:52:00.263Z,17.95
2022-10-02T22:54:32.860Z,20.00
2022-10-02T22:57:03.173Z,23.88
2022-10-02T22:59:37.847Z,19.48
2022-10-02T23:02:22.228Z,15.00
2022-10-02T23:05:05.849Z,18.83
2022-10-02T23:07:51.152Z,20.27
2022-10-02T23:10:39.714Z,17.52
2022-10-02T23:13:20.035Z,19.73
2022-10-02T23:16:08.120Z,15.07
2022-10-02T23:18:40.853Z,22.33
2022-10-02T23:21:13.152Z,11.10
2022-10-02T23:23:55.868Z,21.10
2022-10-02T23:26:48.584Z,11.00
2022-10-02T23:29:15.154Z,11.48
2022-10-02T23:31:54.020Z,10.13
2022-10-02T23:34:37.006Z,13.27
2022-10-02T23:37:25.203Z,10.52
2022-10-02T23:39:51.586Z,19.75
2022-10-02T23:42:35.316Z,14.10
2022-10-02T23:45:24.071Z,14.10
2022-10-02T23:48:04.181Z,16.85
2022-10-02T23:50:46.984Z,13.95
2022-10-02T23:53:49.565Z,16.23
2022-10-02T23:56:32.032Z,15.35
2022-10-02T23:59:17.322Z,14.10
